sensor_id;sensor_type;location;lat;lon;timestamp;pressure;altitude;pressure_sealevel;temperature;humidity
49297;BME280;35163;48.878;18.040;2023-12-07T00:00:00;98210.06;;;5.62;64.47
49297;BME280;35163;48.878;18.040;2023-12-07T00:02:27;98207.47;;;5.63;64.07
49297;BME280;35163;48.878;18.040;2023-12-07T00:04:53;98212.59;;;5.63;64.21
49297;BME280;35163;48.878;18.040;2023-12-07T00:07:20;98216.91;;;5.63;64.09
49297;BME280;35163;48.878;18.040;2023-12-07T00:09:47;98213.47;;;5.62;64.18
49297;BME280;35163;48.878;18.040;2023-12-07T00:12:14;98208.31;;;5.64;64.37
49297;BME280;35163;48.878;18.040;2023-12-07T00:14:41;98207.47;;;5.65;63.65
49297;BME280;35163;48.878;18.040;2023-12-07T00:17:08;98208.31;;;5.64;63.97
49297;BME280;35163;48.878;18.040;2023-12-07T00:19:34;98212.56;;;5.66;64.11
49297;BME280;35163;48.878;18.040;2023-12-07T00:22:02;98209.19;;;5.64;64.18
49297;BME280;35163;48.878;18.040;2023-12-07T00:24:28;98206.63;;;5.63;64.04
49297;BME280;35163;48.878;18.040;2023-12-07T00:26:57;98199.78;;;5.62;64.55
49297;BME280;35163;48.878;18.040;2023-12-07T00:29:24;98198.91;;;5.64;64.24
49297;BME280;35163;48.878;18.040;2023-12-07T00:31:51;98201.53;;;5.61;64.35
49297;BME280;35163;48.878;18.040;2023-12-07T00:34:18;98189.56;;;5.60;63.86
49297;BME280;35163;48.878;18.040;2023-12-07T00:36:45;98202.34;;;5.62;64.06
49297;BME280;35163;48.878;18.040;2023-12-07T00:39:12;98197.22;;;5.63;63.81
49297;BME280;35163;48.878;18.040;2023-12-07T00:41:39;98197.22;;;5.62;63.86
49297;BME280;35163;48.878;18.040;2023-12-07T00:44:05;98190.44;;;5.59;63.04
49297;BME280;35163;48.878;18.040;2023-12-07T00:46:32;98200.69;;;5.61;63.66
49297;BME280;35163;48.878;18.040;2023-12-07T00:48:59;98207.50;;;5.60;63.45
49297;BME280;35163;48.878;18.040;2023-12-07T00:51:26;98212.66;;;5.58;63.20
49297;BME280;35163;48.878;18.040;2023-12-07T00:53:53;98212.69;;;5.57;62.79
49297;BME280;35163;48.878;18.040;2023-12-07T00:56:20;98210.16;;;5.55;63.44
49297;BME280;35163;48.878;18.040;2023-12-07T00:58:47;98208.50;;;5.51;63.80
49297;BME280;35163;48.878;18.040;2023-12-07T01:01:13;98213.66;;;5.48;64.04
49297;BME280;35163;48.878;18.040;2023-12-07T01:03:40;98204.31;;;5.45;64.24
49297;BME280;35163;48.878;18.040;2023-12-07T01:06:07;98206.03;;;5.45;64.04
49297;BME280;35163;48.878;18.040;2023-12-07T01:08:34;98212.09;;;5.41;63.83
49297;BME280;35163;48.878;18.040;2023-12-07T01:11:01;98208.69;;;5.39;64.17
49297;BME280;35163;48.878;18.040;2023-12-07T01:13:28;98212.09;;;5.38;63.99
49297;BME280;35163;48.878;18.040;2023-12-07T01:15:55;98216.41;;;5.37;64.12
49297;BME280;35163;48.878;18.040;2023-12-07T01:18:22;98213.03;;;5.33;64.10
49297;BME280;35163;48.878;18.040;2023-12-07T01:20:48;98207.88;;;5.35;64.35
49297;BME280;35163;48.878;18.040;2023-12-07T01:23:16;98215.56;;;5.35;63.79
49297;BME280;35163;48.878;18.040;2023-12-07T01:25:43;98212.09;;;5.38;63.82
49297;BME280;35163;48.878;18.040;2023-12-07T01:28:09;98212.13;;;5.36;64.01
49297;BME280;35163;48.878;18.040;2023-12-07T01:30:36;98206.19;;;5.32;63.62
49297;BME280;35163;48.878;18.040;2023-12-07T01:33:03;98214.72;;;5.34;63.70
49297;BME280;35163;48.878;18.040;2023-12-07T01:35:30;98211.31;;;5.32;63.84
49297;BME280;35163;48.878;18.040;2023-12-07T01:37:57;98219.00;;;5.32;63.67
49297;BME280;35163;48.878;18.040;2023-12-07T01:40:23;98222.44;;;5.33;63.67
49297;BME280;35163;48.878;18.040;2023-12-07T01:42:51;98229.25;;;5.32;63.51
49297;BME280;35163;48.878;18.040;2023-12-07T01:45:19;98227.56;;;5.33;63.78
49297;BME280;35163;48.878;18.040;2023-12-07T01:47:49;98224.16;;;5.31;63.70
49297;BME280;35163;48.878;18.040;2023-12-07T01:50:18;98227.56;;;5.31;63.54
49297;BME280;35163;48.878;18.040;2023-12-07T01:52:54;98229.25;;;5.32;63.59
49297;BME280;35163;48.878;18.040;2023-12-07T01:55:23;98220.75;;;5.30;64.15
49297;BME280;35163;48.878;18.040;2023-12-07T01:57:51;98231.00;;;5.32;63.96
49297;BME280;35163;48.878;18.040;2023-12-07T02:00:18;98225.88;;;5.32;64.23
49297;BME280;35163;48.878;18.040;2023-12-07T02:02:47;98230.13;;;5.31;64.15
49297;BME280;35163;48.878;18.040;2023-12-07T02:05:14;98227.56;;;5.31;64.45
49297;BME280;35163;48.878;18.040;2023-12-07T02:07:41;98223.28;;;5.33;64.37
49297;BME280;35163;48.878;18.040;2023-12-07T02:10:09;98223.28;;;5.33;64.62
49297;BME280;35163;48.878;18.040;2023-12-07T02:12:36;98224.13;;;5.34;64.39
49297;BME280;35163;48.878;18.040;2023-12-07T02:15:04;98224.13;;;5.32;64.37
49297;BME280;35163;48.878;18.040;2023-12-07T02:22:38;98225.00;;;5.33;64.63
49297;BME280;35163;48.878;18.040;2023-12-07T02:25:10;98229.25;;;5.32;64.71
49297;BME280;35163;48.878;18.040;2023-12-07T02:27:41;98230.13;;;5.33;64.81
49297;BME280;35163;48.878;18.040;2023-12-07T02:30:10;98231.84;;;5.34;64.85
49297;BME280;35163;48.878;18.040;2023-12-07T02:32:41;98230.13;;;5.33;64.82
49297;BME280;35163;48.878;18.040;2023-12-07T02:35:09;98234.41;;;5.34;64.81
49297;BME280;35163;48.878;18.040;2023-12-07T02:37:44;98228.38;;;5.35;65.09
49297;BME280;35163;48.878;18.040;2023-12-07T02:40:12;98235.22;;;5.34;64.81
49297;BME280;35163;48.878;18.040;2023-12-07T02:42:42;98245.47;;;5.34;64.77
49297;BME280;35163;48.878;18.040;2023-12-07T02:45:10;98246.34;;;5.33;65.03
49297;BME280;35163;48.878;18.040;2023-12-07T02:47:38;98242.91;;;5.34;64.89
49297;BME280;35163;48.878;18.040;2023-12-07T02:50:06;98253.16;;;5.34;64.76
49297;BME280;35163;48.878;18.040;2023-12-07T02:52:34;98255.72;;;5.34;64.66
49297;BME280;35163;48.878;18.040;2023-12-07T02:55:01;98248.91;;;5.35;64.53
49297;BME280;35163;48.878;18.040;2023-12-07T02:57:29;98250.59;;;5.34;64.95
49297;BME280;35163;48.878;18.040;2023-12-07T02:59:56;98254.00;;;5.37;64.60
49297;BME280;35163;48.878;18.040;2023-12-07T03:02:23;98252.31;;;5.35;65.03
49297;BME280;35163;48.878;18.040;2023-12-07T03:04:51;98247.16;;;5.37;64.81
49297;BME280;35163;48.878;18.040;2023-12-07T03:07:17;98249.75;;;5.35;64.81
49297;BME280;35163;48.878;18.040;2023-12-07T03:09:44;98248.03;;;5.36;64.89
49297;BME280;35163;48.878;18.040;2023-12-07T03:12:11;98249.75;;;5.35;64.43
49297;BME280;35163;48.878;18.040;2023-12-07T03:14:38;98248.03;;;5.34;64.34
49297;BME280;35163;48.878;18.040;2023-12-07T03:17:04;98250.59;;;5.36;64.52
49297;BME280;35163;48.878;18.040;2023-12-07T03:19:31;98242.03;;;5.37;64.07
49297;BME280;35163;48.878;18.040;2023-12-07T03:21:58;98236.06;;;5.37;64.19
49297;BME280;35163;48.878;18.040;2023-12-07T03:24:24;98247.19;;;5.35;64.19
49297;BME280;35163;48.878;18.040;2023-12-07T03:26:52;98239.50;;;5.32;63.55
49297;BME280;35163;48.878;18.040;2023-12-07T03:29:19;98250.66;;;5.31;63.92
49297;BME280;35163;48.878;18.040;2023-12-07T03:31:46;98251.50;;;5.33;63.80
49297;BME280;35163;48.878;18.040;2023-12-07T03:34:12;98242.09;;;5.31;63.50
49297;BME280;35163;48.878;18.040;2023-12-07T03:36:45;98248.09;;;5.31;63.35
49297;BME280;35163;48.878;18.040;2023-12-07T03:39:17;98245.53;;;5.30;63.28
49297;BME280;35163;48.878;18.040;2023-12-07T03:41:48;98248.97;;;5.27;63.24
49297;BME280;35163;48.878;18.040;2023-12-07T03:44:15;98250.72;;;5.27;63.07
49297;BME280;35163;48.878;18.040;2023-12-07T03:46:42;98251.59;;;5.24;62.85
49297;BME280;35163;48.878;18.040;2023-12-07T03:49:09;98251.59;;;5.24;63.21
49297;BME280;35163;48.878;18.040;2023-12-07T03:51:37;98255.03;;;5.23;62.72
49297;BME280;35163;48.878;18.040;2023-12-07T03:54:04;98255.91;;;5.20;62.94
49297;BME280;35163;48.878;18.040;2023-12-07T03:56:33;98259.31;;;5.21;63.12
49297;BME280;35163;48.878;18.040;2023-12-07T03:59:00;98260.22;;;5.18;63.30
49297;BME280;35163;48.878;18.040;2023-12-07T04:01:28;98256.81;;;5.18;63.15
49297;BME280;35163;48.878;18.040;2023-12-07T04:03:56;98262.78;;;5.18;63.52
49297;BME280;35163;48.878;18.040;2023-12-07T04:06:24;98262.75;;;5.20;63.47
49297;BME280;35163;48.878;18.040;2023-12-07T04:08:51;98276.41;;;5.20;63.34
49297;BME280;35163;48.878;18.040;2023-12-07T04:11:19;98269.56;;;5.21;63.37
49297;BME280;35163;48.878;18.040;2023-12-07T04:13:46;98273.03;;;5.20;63.72
49297;BME280;35163;48.878;18.040;2023-12-07T04:16:13;98277.28;;;5.21;63.78
49297;BME280;35163;48.878;18.040;2023-12-07T04:18:40;98278.94;;;5.22;63.99
49297;BME280;35163;48.878;18.040;2023-12-07T04:21:06;98282.41;;;5.19;64.11
49297;BME280;35163;48.878;18.040;2023-12-07T04:23:33;98277.28;;;5.21;64.28
49297;BME280;35163;48.878;18.040;2023-12-07T04:26:00;98284.97;;;5.21;64.19
49297;BME280;35163;48.878;18.040;2023-12-07T04:28:27;98283.25;;;5.21;64.51
49297;BME280;35163;48.878;18.040;2023-12-07T04:30:54;98281.53;;;5.20;64.67
49297;BME280;35163;48.878;18.040;2023-12-07T04:33:21;98286.66;;;5.20;64.36
49297;BME280;35163;48.878;18.040;2023-12-07T04:35:48;98296.91;;;5.23;64.41
49297;BME280;35163;48.878;18.040;2023-12-07T04:38:15;98290.06;;;5.22;64.09
49297;BME280;35163;48.878;18.040;2023-12-07T04:40:42;98290.94;;;5.23;64.15
49297;BME280;35163;48.878;18.040;2023-12-07T04:43:09;98289.22;;;5.22;64.06
49297;BME280;35163;48.878;18.040;2023-12-07T04:45:36;98293.50;;;5.21;63.84
49297;BME280;35163;48.878;18.040;2023-12-07T04:48:02;98298.63;;;5.21;63.84
49297;BME280;35163;48.878;18.040;2023-12-07T04:50:31;98298.63;;;5.21;64.32
49297;BME280;35163;48.878;18.040;2023-12-07T04:52:58;98303.78;;;5.20;64.27
49297;BME280;35163;48.878;18.040;2023-12-07T04:55:25;98302.88;;;5.22;64.42
49297;BME280;35163;48.878;18.040;2023-12-07T04:57:53;98301.22;;;5.20;63.89
49297;BME280;35163;48.878;18.040;2023-12-07T05:00:20;98302.03;;;5.20;64.35
49297;BME280;35163;48.878;18.040;2023-12-07T05:02:48;98303.75;;;5.21;64.50
49297;BME280;35163;48.878;18.040;2023-12-07T05:05:15;98305.50;;;5.19;64.82
49297;BME280;35163;48.878;18.040;2023-12-07T05:07:41;98304.59;;;5.22;64.20
49297;BME280;35163;48.878;18.040;2023-12-07T05:10:08;98318.28;;;5.21;64.52
49297;BME280;35163;48.878;18.040;2023-12-07T05:12:36;98316.59;;;5.20;64.63
49297;BME280;35163;48.878;18.040;2023-12-07T05:15:04;98314.88;;;5.20;64.43
49297;BME280;35163;48.878;18.040;2023-12-07T05:17:32;98314.84;;;5.25;64.57
49297;BME280;35163;48.878;18.040;2023-12-07T05:19:59;98315.66;;;5.29;65.19
49297;BME280;35163;48.878;18.040;2023-12-07T05:22:26;98323.28;;;5.33;64.45
49297;BME280;35163;48.878;18.040;2023-12-07T05:24:54;98324.97;;;5.34;64.64
49297;BME280;35163;48.878;18.040;2023-12-07T05:27:21;98329.28;;;5.31;64.59
49297;BME280;35163;48.878;18.040;2023-12-07T05:29:48;98337.78;;;5.34;64.56
49297;BME280;35163;48.878;18.040;2023-12-07T05:32:14;98333.53;;;5.33;64.15
49297;BME280;35163;48.878;18.040;2023-12-07T05:34:41;98339.50;;;5.32;64.72
49297;BME280;35163;48.878;18.040;2023-12-07T05:37:08;98339.53;;;5.31;64.92
49297;BME280;35163;48.878;18.040;2023-12-07T05:39:35;98338.00;;;5.87;78.62
49297;BME280;35163;48.878;18.040;2023-12-07T05:42:02;98344.84;;;5.88;66.49
49297;BME280;35163;48.878;18.040;2023-12-07T05:44:31;98344.84;;;5.88;66.26
49297;BME280;35163;48.878;18.040;2023-12-07T05:46:58;98345.72;;;5.87;65.69
49297;BME280;35163;48.878;18.040;2023-12-07T05:49:25;98342.25;;;5.88;65.58
49297;BME280;35163;48.878;18.040;2023-12-07T05:51:52;98343.97;;;5.89;65.51
49297;BME280;35163;48.878;18.040;2023-12-07T05:54:19;98355.06;;;5.91;65.71
49297;BME280;35163;48.878;18.040;2023-12-07T05:56:49;98354.19;;;5.93;65.39
49297;BME280;35163;48.878;18.040;2023-12-07T05:59:16;98353.28;;;5.96;66.05
49297;BME280;35163;48.878;18.040;2023-12-07T06:01:43;98355.00;;;5.97;65.74
49297;BME280;35163;48.878;18.040;2023-12-07T06:04:10;98366.09;;;5.99;65.87
49297;BME280;35163;48.878;18.040;2023-12-07T06:06:42;98364.38;;;5.98;65.15
49297;BME280;35163;48.878;18.040;2023-12-07T06:09:09;98371.22;;;5.98;65.98
49297;BME280;35163;48.878;18.040;2023-12-07T06:11:37;98375.47;;;6.00;65.15
49297;BME280;35163;48.878;18.040;2023-12-07T06:14:04;98372.03;;;6.01;65.19
49297;BME280;35163;48.878;18.040;2023-12-07T06:16:33;98373.75;;;6.02;65.57
49297;BME280;35163;48.878;18.040;2023-12-07T06:18:59;98376.28;;;6.04;65.55
49297;BME280;35163;48.878;18.040;2023-12-07T06:21:26;98386.56;;;6.02;65.58
49297;BME280;35163;48.878;18.040;2023-12-07T06:23:56;98384.00;;;6.02;64.80
49297;BME280;35163;48.878;18.040;2023-12-07T06:26:23;98389.16;;;6.02;65.40
49297;BME280;35163;48.878;18.040;2023-12-07T06:28:49;98388.31;;;6.00;64.89
49297;BME280;35163;48.878;18.040;2023-12-07T06:31:16;98385.75;;;6.00;65.00
49297;BME280;35163;48.878;18.040;2023-12-07T06:33:46;98387.44;;;6.00;64.74
49297;BME280;35163;48.878;18.040;2023-12-07T06:36:21;98388.34;;;5.99;64.18
49297;BME280;35163;48.878;18.040;2023-12-07T06:38:48;98399.47;;;5.99;64.59
49297;BME280;35163;48.878;18.040;2023-12-07T06:41:15;98390.09;;;5.93;64.25
49297;BME280;35163;48.878;18.040;2023-12-07T06:43:42;98400.28;;;6.00;64.13
49297;BME280;35163;48.878;18.040;2023-12-07T06:46:12;98405.47;;;5.96;64.25
49297;BME280;35163;48.878;18.040;2023-12-07T06:48:41;98403.72;;;5.99;63.54
49297;BME280;35163;48.878;18.040;2023-12-07T06:51:08;98409.78;;;5.93;63.57
49297;BME280;35163;48.878;18.040;2023-12-07T06:53:35;98412.31;;;5.96;63.49
49297;BME280;35163;48.878;18.040;2023-12-07T06:56:01;98414.84;;;5.98;63.67
49297;BME280;35163;48.878;18.040;2023-12-07T06:58:28;98424.28;;;5.99;63.34
49297;BME280;35163;48.878;18.040;2023-12-07T07:00:55;98420.00;;;5.96;63.61
49297;BME280;35163;48.878;18.040;2023-12-07T07:03:22;98415.81;;;5.92;63.02
49297;BME280;35163;48.878;18.040;2023-12-07T07:05:49;98416.63;;;5.92;63.09
49297;BME280;35163;48.878;18.040;2023-12-07T07:08:16;98426.91;;;5.94;62.83
49297;BME280;35163;48.878;18.040;2023-12-07T07:10:43;98425.19;;;5.93;62.47
49297;BME280;35163;48.878;18.040;2023-12-07T07:13:11;98426.91;;;5.92;62.49
49297;BME280;35163;48.878;18.040;2023-12-07T07:15:37;98434.63;;;5.91;62.94
49297;BME280;35163;48.878;18.040;2023-12-07T07:18:04;98433.75;;;5.92;62.92
49297;BME280;35163;48.878;18.040;2023-12-07T07:20:32;98438.91;;;5.92;62.62
49297;BME280;35163;48.878;18.040;2023-12-07T07:22:58;98434.63;;;5.89;62.60
49297;BME280;35163;48.878;18.040;2023-12-07T07:25:25;98438.91;;;5.92;62.49
49297;BME280;35163;48.878;18.040;2023-12-07T07:27:52;98439.72;;;5.95;62.44
49297;BME280;35163;48.878;18.040;2023-12-07T07:30:21;98440.59;;;5.91;62.49
49297;BME280;35163;48.878;18.040;2023-12-07T07:32:48;98443.19;;;5.90;62.89
49297;BME280;35163;48.878;18.040;2023-12-07T07:35:15;98452.53;;;5.95;62.90
49297;BME280;35163;48.878;18.040;2023-12-07T07:37:42;98449.16;;;5.92;62.22
49297;BME280;35163;48.878;18.040;2023-12-07T07:40:10;98454.25;;;5.95;62.43
49297;BME280;35163;48.878;18.040;2023-12-07T07:42:38;98454.28;;;5.92;61.83
49297;BME280;35163;48.878;18.040;2023-12-07T07:45:08;98454.25;;;5.95;61.88
49297;BME280;35163;48.878;18.040;2023-12-07T07:47:36;98456.81;;;5.95;62.17
49297;BME280;35163;48.878;18.040;2023-12-07T07:50:04;98465.38;;;5.95;62.30
49297;BME280;35163;48.878;18.040;2023-12-07T07:52:33;98463.63;;;5.98;62.07
49297;BME280;35163;48.878;18.040;2023-12-07T07:55:01;98462.78;;;5.99;61.82
49297;BME280;35163;48.878;18.040;2023-12-07T07:57:29;98459.31;;;6.00;61.76
49297;BME280;35163;48.878;18.040;2023-12-07T07:59:57;98461.03;;;6.02;61.89
49297;BME280;35163;48.878;18.040;2023-12-07T08:02:24;98466.13;;;6.04;61.78
49297;BME280;35163;48.878;18.040;2023-12-07T08:04:51;98467.00;;;6.06;62.15
49297;BME280;35163;48.878;18.040;2023-12-07T08:07:18;98459.25;;;6.04;62.03
49297;BME280;35163;48.878;18.040;2023-12-07T08:09:45;98468.66;;;6.08;61.91
49297;BME280;35163;48.878;18.040;2023-12-07T08:12:11;98475.50;;;6.10;61.55
49297;BME280;35163;48.878;18.040;2023-12-07T08:14:38;98472.94;;;6.11;61.57
49297;BME280;35163;48.878;18.040;2023-12-07T08:17:06;98472.06;;;6.12;61.87
49297;BME280;35163;48.878;18.040;2023-12-07T08:19:33;98479.72;;;6.14;61.55
49297;BME280;35163;48.878;18.040;2023-12-07T08:22:00;98483.97;;;6.15;62.09
49297;BME280;35163;48.878;18.040;2023-12-07T08:24:26;98481.41;;;6.18;61.30
49297;BME280;35163;48.878;18.040;2023-12-07T08:26:53;98476.22;;;6.21;60.75
49297;BME280;35163;48.878;18.040;2023-12-07T08:29:20;98482.19;;;6.22;60.31
49297;BME280;35163;48.878;18.040;2023-12-07T08:31:46;98477.94;;;6.20;60.31
49297;BME280;35163;48.878;18.040;2023-12-07T08:34:13;98492.47;;;6.23;60.29
49297;BME280;35163;48.878;18.040;2023-12-07T08:36:40;98491.53;;;6.27;60.48
49297;BME280;35163;48.878;18.040;2023-12-07T08:39:07;98490.69;;;6.28;60.33
49297;BME280;35163;48.878;18.040;2023-12-07T08:41:36;98496.63;;;6.30;60.53
49297;BME280;35163;48.878;18.040;2023-12-07T08:44:04;98499.16;;;6.34;60.30
49297;BME280;35163;48.878;18.040;2023-12-07T08:46:32;98501.72;;;6.34;60.10
49297;BME280;35163;48.878;18.040;2023-12-07T08:48:58;98503.44;;;6.35;60.06
49297;BME280;35163;48.878;18.040;2023-12-07T08:51:25;98503.41;;;6.36;59.55
49297;BME280;35163;48.878;18.040;2023-12-07T08:53:52;98504.25;;;6.38;59.53
49297;BME280;35163;48.878;18.040;2023-12-07T08:56:21;98505.94;;;6.39;59.23
49297;BME280;35163;48.878;18.040;2023-12-07T08:58:48;98503.34;;;6.41;59.11
49297;BME280;35163;48.878;18.040;2023-12-07T09:01:15;98506.81;;;6.40;58.97
49297;BME280;35163;48.878;18.040;2023-12-07T09:03:55;98504.19;;;6.43;58.35
49297;BME280;35163;48.878;18.040;2023-12-07T09:06:22;98506.75;;;6.43;58.52
49297;BME280;35163;48.878;18.040;2023-12-07T09:08:49;98506.75;;;6.43;58.35
49297;BME280;35163;48.878;18.040;2023-12-07T09:11:15;98507.59;;;6.45;58.85
49297;BME280;35163;48.878;18.040;2023-12-07T09:13:42;98509.28;;;6.46;58.84
49297;BME280;35163;48.878;18.040;2023-12-07T09:16:09;98514.41;;;6.48;58.65
49297;BME280;35163;48.878;18.040;2023-12-07T09:18:36;98513.53;;;6.50;58.46
49297;BME280;35163;48.878;18.040;2023-12-07T09:21:03;98513.47;;;6.53;58.48
49297;BME280;35163;48.878;18.040;2023-12-07T09:23:31;98510.94;;;6.52;58.00
49297;BME280;35163;48.878;18.040;2023-12-07T09:25:58;98506.56;;;6.57;58.06
49297;BME280;35163;48.878;18.040;2023-12-07T09:28:25;98505.69;;;6.58;57.81
49297;BME280;35163;48.878;18.040;2023-12-07T09:30:51;98510.84;;;6.58;57.69
49297;BME280;35163;48.878;18.040;2023-12-07T09:33:18;98509.09;;;6.60;57.82
49297;BME280;35163;48.878;18.040;2023-12-07T09:35:47;98509.97;;;6.61;56.96
49297;BME280;35163;48.878;18.040;2023-12-07T09:38:14;98514.19;;;6.63;57.30
49297;BME280;35163;48.878;18.040;2023-12-07T09:40:41;98509.91;;;6.64;57.04
49297;BME280;35163;48.878;18.040;2023-12-07T09:43:08;98507.31;;;6.65;56.93
49297;BME280;35163;48.878;18.040;2023-12-07T09:45:35;98512.41;;;6.68;56.68
49297;BME280;35163;48.878;18.040;2023-12-07T09:48:02;98508.13;;;6.69;56.87
49297;BME280;35163;48.878;18.040;2023-12-07T09:50:29;98500.41;;;6.69;56.29
49297;BME280;35163;48.878;18.040;2023-12-07T09:52:57;98502.06;;;6.73;56.56
49297;BME280;35163;48.878;18.040;2023-12-07T09:55:34;98502.88;;;6.75;56.20
49297;BME280;35163;48.878;18.040;2023-12-07T09:58:04;98496.06;;;6.74;56.00
49297;BME280;35163;48.878;18.040;2023-12-07T10:00:32;98510.56;;;6.78;56.09
49297;BME280;35163;48.878;18.040;2023-12-07T10:03:00;98506.25;;;6.80;56.13
49297;BME280;35163;48.878;18.040;2023-12-07T10:05:27;98502.00;;;6.79;55.43
49297;BME280;35163;48.878;18.040;2023-12-07T10:07:54;98503.66;;;6.82;55.55
49297;BME280;35163;48.878;18.040;2023-12-07T10:10:20;98501.09;;;6.80;55.45
49297;BME280;35163;48.878;18.040;2023-12-07T10:12:51;98499.38;;;6.83;55.75
49297;BME280;35163;48.878;18.040;2023-12-07T10:15:19;98496.75;;;6.86;55.46
49297;BME280;35163;48.878;18.040;2023-12-07T10:17:55;98507.03;;;6.86;55.14
49297;BME280;35163;48.878;18.040;2023-12-07T10:20:28;98511.31;;;6.87;55.65
49297;BME280;35163;48.878;18.040;2023-12-07T10:23:07;98514.72;;;6.86;55.47
49297;BME280;35163;48.878;18.040;2023-12-07T10:25:39;98503.59;;;6.87;55.12
49297;BME280;35163;48.878;18.040;2023-12-07T10:28:08;98502.72;;;6.88;55.20
49297;BME280;35163;48.878;18.040;2023-12-07T10:30:40;98501.03;;;6.87;55.18
49297;BME280;35163;48.878;18.040;2023-12-07T10:33:10;98502.72;;;6.88;54.88
49297;BME280;35163;48.878;18.040;2023-12-07T10:35:40;98511.31;;;6.85;54.88
49297;BME280;35163;48.878;18.040;2023-12-07T10:38:08;98512.16;;;6.86;54.68
49297;BME280;35163;48.878;18.040;2023-12-07T10:40:35;98513.06;;;6.85;54.62
49297;BME280;35163;48.878;18.040;2023-12-07T10:43:05;98507.94;;;6.83;54.30
49297;BME280;35163;48.878;18.040;2023-12-07T10:45:33;98497.69;;;6.82;54.34
49297;BME280;35163;48.878;18.040;2023-12-07T10:48:10;98504.56;;;6.79;53.79
49297;BME280;35163;48.878;18.040;2023-12-07T10:50:41;98499.47;;;6.76;54.25
49297;BME280;35163;48.878;18.040;2023-12-07T10:53:17;98498.53;;;6.80;54.83
49297;BME280;35163;48.878;18.040;2023-12-07T10:55:49;98498.53;;;6.80;54.63
49297;BME280;35163;48.878;18.040;2023-12-07T10:58:19;98499.34;;;6.84;54.50
49297;BME280;35163;48.878;18.040;2023-12-07T11:00:48;98500.22;;;6.83;54.70
49297;BME280;35163;48.878;18.040;2023-12-07T11:03:16;98503.63;;;6.84;54.56
49297;BME280;35163;48.878;18.040;2023-12-07T11:05:45;98501.84;;;6.89;54.87
49297;BME280;35163;48.878;18.040;2023-12-07T11:11:56;98500.94;;;6.93;54.68
49297;BME280;35163;48.878;18.040;2023-12-07T11:14:03;98493.19;;;6.95;54.71
49297;BME280;35163;48.878;18.040;2023-12-07T11:16:37;98498.28;;;6.98;54.71
49297;BME280;35163;48.878;18.040;2023-12-07T11:19:04;98497.41;;;7.00;54.02
49297;BME280;35163;48.878;18.040;2023-12-07T11:21:35;98493.13;;;6.98;54.17
49297;BME280;35163;48.878;18.040;2023-12-07T11:24:03;98495.69;;;6.99;54.16
49297;BME280;35163;48.878;18.040;2023-12-07T11:26:30;98497.41;;;7.00;53.96
49297;BME280;35163;48.878;18.040;2023-12-07T11:28:57;98495.63;;;7.02;54.35
49297;BME280;35163;48.878;18.040;2023-12-07T11:31:25;98505.00;;;7.07;54.74
49297;BME280;35163;48.878;18.040;2023-12-07T11:33:53;98511.88;;;7.04;54.33
49297;BME280;35163;48.878;18.040;2023-12-07T11:36:20;98510.97;;;7.09;54.00
49297;BME280;35163;48.878;18.040;2023-12-07T11:41:50;98504.88;;;7.16;53.59
49297;BME280;35163;48.878;18.040;2023-12-07T11:44:24;98506.53;;;7.19;53.85
49297;BME280;35163;48.878;18.040;2023-12-07T11:46:51;98509.97;;;7.19;54.08
49297;BME280;35163;48.878;18.040;2023-12-07T11:49:18;98502.19;;;7.22;53.75
49297;BME280;35163;48.878;18.040;2023-12-07T11:51:59;98508.19;;;7.23;53.94
49297;BME280;35163;48.878;18.040;2023-12-07T11:54:26;98503.88;;;7.23;53.44
49297;BME280;35163;48.878;18.040;2023-12-07T11:56:54;98503.03;;;7.24;53.42
49297;BME280;35163;48.878;18.040;2023-12-07T11:59:24;98498.66;;;7.29;53.57
49297;BME280;35163;48.878;18.040;2023-12-07T12:02:00;98502.06;;;7.28;53.98
49297;BME280;35163;48.878;18.040;2023-12-07T12:04:29;98508.88;;;7.33;53.96
49297;BME280;35163;48.878;18.040;2023-12-07T12:06:56;98505.41;;;7.34;53.88
49297;BME280;35163;48.878;18.040;2023-12-07T12:09:26;98509.69;;;7.36;54.03
49297;BME280;35163;48.878;18.040;2023-12-07T12:11:58;98506.28;;;7.34;53.39
49297;BME280;35163;48.878;18.040;2023-12-07T12:14:27;98496.84;;;7.35;53.87
49297;BME280;35163;48.878;18.040;2023-12-07T12:16:54;98496.78;;;7.38;54.37
49297;BME280;35163;48.878;18.040;2023-12-07T12:19:24;98501.03;;;7.39;54.23
49297;BME280;35163;48.878;18.040;2023-12-07T12:22:03;98497.63;;;7.40;54.44
49297;BME280;35163;48.878;18.040;2023-12-07T12:24:34;98500.19;;;7.40;54.63
49297;BME280;35163;48.878;18.040;2023-12-07T12:27:02;98507.88;;;7.41;54.76
49297;BME280;35163;48.878;18.040;2023-12-07T12:29:30;98508.75;;;7.39;54.55
49297;BME280;35163;48.878;18.040;2023-12-07T12:32:03;98513.06;;;7.38;54.19
49297;BME280;35163;48.878;18.040;2023-12-07T12:34:33;98513.97;;;7.36;54.41
49297;BME280;35163;48.878;18.040;2023-12-07T12:37:02;98512.25;;;7.36;54.78
49297;BME280;35163;48.878;18.040;2023-12-07T12:39:33;98511.38;;;7.37;54.81
49297;BME280;35163;48.878;18.040;2023-12-07T12:42:02;98513.91;;;7.39;54.22
49297;BME280;35163;48.878;18.040;2023-12-07T12:44:30;98511.31;;;7.40;54.10
49297;BME280;35163;48.878;18.040;2023-12-07T12:47:07;98507.06;;;7.38;53.94
49297;BME280;35163;48.878;18.040;2023-12-07T12:49:38;98516.47;;;7.39;53.97
49297;BME280;35163;48.878;18.040;2023-12-07T12:52:14;98519.00;;;7.42;54.49
49297;BME280;35163;48.878;18.040;2023-12-07T12:54:43;98521.53;;;7.44;53.89
49297;BME280;35163;48.878;18.040;2023-12-07T12:57:10;98517.31;;;7.41;53.32
49297;BME280;35163;48.878;18.040;2023-12-07T12:59:37;98518.13;;;7.43;53.20
49297;BME280;35163;48.878;18.040;2023-12-07T13:02:04;98518.13;;;7.43;53.64
49297;BME280;35163;48.878;18.040;2023-12-07T13:04:32;98519.81;;;7.44;53.42
49297;BME280;35163;48.878;18.040;2023-12-07T13:07:07;98514.75;;;7.41;53.59
49297;BME280;35163;48.878;18.040;2023-12-07T13:09:34;98517.31;;;7.41;53.74
49297;BME280;35163;48.878;18.040;2023-12-07T13:12:01;98512.22;;;7.38;53.22
49297;BME280;35163;48.878;18.040;2023-12-07T13:14:32;98519.97;;;7.36;53.30